Time;durP1;ratioP1;P1;durP2;ratioP2;P2;SDS_P1;SDS_P2;PMS_P1;PMS_P2;Temp;Humidity;BMP_temperature;BMP_pressure;BME280_temperature;BME280_humidity;BME280_pressure;Samples;Min_cycle;Max_cycle;Signal;HPM_P1;HPM_P2
2021/01/28 00:00:30;;;;;;;127.07;51.95;;;;;;;-2.04;100.00;98579.19;2079844;28;20214;-71
2021/01/28 00:01:31;;;;;;;124.28;52.65;;;;;;;-2.08;100.00;98574.66;2079758;28;20234;-72
2021/01/28 00:02:32;;;;;;;128.93;54.88;;;;;;;-2.08;100.00;98574.66;2071905;28;20220;-71
2021/01/28 00:03:34;;;;;;;129.15;54.85;;;;;;;-2.07;100.00;98573.63;2080007;28;20219;-71
2021/01/28 00:04:35;;;;;;;124.45;55.67;;;;;;;-2.07;100.00;98573.63;2080083;28;20281;-72
2021/01/28 00:05:38;;;;;;;119.43;54.13;;;;;;;-2.07;100.00;98571.81;2080696;28;20223;-71
2021/01/28 00:06:39;;;;;;;132.27;56.17;;;;;;;-2.12;100.00;98566.47;2080330;28;20716;-71
2021/01/28 00:07:41;;;;;;;121.47;55.17;;;;;;;-2.11;100.00;98575.09;2080831;28;20713;-71
2021/01/28 00:08:42;;;;;;;119.38;54.38;;;;;;;-2.17;100.00;98561.13;2080600;28;20316;-71
2021/01/28 00:09:43;;;;;;;131.20;54.63;;;;;;;-2.12;100.00;98574.28;2079761;28;20216;-71
2021/01/28 00:10:44;;;;;;;117.87;53.30;;;;;;;-2.12;100.00;98566.47;2080051;28;20250;-71
2021/01/28 00:11:45;;;;;;;127.30;55.85;;;;;;;-2.15;100.00;98563.50;2079921;28;20309;-72
2021/01/28 00:12:47;;;;;;;119.17;55.03;;;;;;;-2.12;100.00;98560.44;2071676;28;20228;-71
2021/01/28 00:13:48;;;;;;;135.05;55.58;;;;;;;-2.14;100.00;98573.72;2079624;28;20230;-71
2021/01/28 00:14:50;;;;;;;128.73;55.27;;;;;;;-2.14;100.00;98563.28;2080853;28;20230;-72
2021/01/28 00:15:50;;;;;;;136.40;56.28;;;;;;;-2.09;100.00;98570.44;2079789;28;20619;-72
2021/01/28 00:16:52;;;;;;;142.57;56.47;;;;;;;-2.12;100.00;98565.66;2079798;28;20285;-72
2021/01/28 00:17:53;;;;;;;124.07;55.45;;;;;;;-2.14;100.00;98572.94;2079258;28;20361;-71
2021/01/28 00:18:54;;;;;;;129.95;56.25;;;;;;;-2.11;100.00;98572.47;2079837;28;20289;-72
2021/01/28 00:19:55;;;;;;;126.93;54.80;;;;;;;-2.12;100.00;98566.47;2079863;28;20224;-71
2021/01/28 00:20:56;;;;;;;134.20;56.37;;;;;;;-2.19;100.00;98551.91;2079990;28;20219;-74
2021/01/28 00:21:57;;;;;;;141.32;56.83;;;;;;;-2.11;100.00;98568.03;2080526;28;20704;-72
2021/01/28 00:22:59;;;;;;;123.23;53.97;;;;;;;-2.14;100.00;98563.28;2079872;28;20589;-72
2021/01/28 00:23:59;;;;;;;130.65;57.83;;;;;;;-2.11;100.00;98556.81;2079685;28;20306;-71
2021/01/28 00:25:02;;;;;;;132.70;55.27;;;;;;;-2.14;100.00;98562.50;2079798;28;20223;-71
2021/01/28 00:26:03;;;;;;;130.05;55.42;;;;;;;-2.13;100.00;98564.88;2079923;28;20642;-72
2021/01/28 00:27:04;;;;;;;130.83;56.37;;;;;;;-2.13;100.00;98564.06;2079869;28;20223;-71
2021/01/28 00:28:08;;;;;;;135.10;54.95;;;;;;;-2.20;100.00;98547.69;2079676;28;20223;-72
2021/01/28 00:29:09;;;;;;;131.85;57.17;;;;;;;-2.22;100.00;98552.38;2079291;28;20250;-71
2021/01/28 00:30:14;;;;;;;127.05;54.72;;;;;;;-2.16;100.00;98554.09;2071670;28;20274;-72
2021/01/28 00:31:15;;;;;;;125.30;54.38;;;;;;;-2.27;100.00;98542.56;2072185;28;20235;-71
2021/01/28 00:32:16;;;;;;;141.07;59.40;;;;;;;-2.21;100.00;98551.34;2079447;28;20230;-72
2021/01/28 00:33:20;;;;;;;135.13;58.03;;;;;;;-2.22;100.00;98554.97;2079888;28;20690;-71
2021/01/28 00:34:21;;;;;;;135.13;56.72;;;;;;;-2.23;100.00;98543.72;2079693;28;20219;-71
2021/01/28 00:35:26;;;;;;;124.27;54.07;;;;;;;-2.22;100.00;98550.53;2079187;28;20223;-70
2021/01/28 00:36:27;;;;;;;142.20;55.10;;;;;;;-2.22;100.00;98549.75;2080553;28;20223;-72
2021/01/28 00:37:28;;;;;;;145.77;55.67;;;;;;;-2.20;100.00;98558.16;2080302;28;20662;-72
2021/01/28 00:38:30;;;;;;;128.98;53.83;;;;;;;-2.24;100.00;98546.56;2080323;28;20689;-71
2021/01/28 00:39:32;;;;;;;128.75;55.90;;;;;;;-2.29;100.00;98542.81;2080520;28;20227;-71
2021/01/28 00:40:33;;;;;;;140.00;55.38;;;;;;;-2.28;100.00;98544.41;2080489;28;20626;-70
2021/01/28 00:41:34;;;;;;;144.02;56.42;;;;;;;-2.25;100.00;98550.22;2080352;28;20243;-71
2021/01/28 00:42:35;;;;;;;133.15;58.55;;;;;;;-2.27;100.00;98545.97;2080471;28;20583;-71
2021/01/28 00:43:38;;;;;;;141.23;57.80;;;;;;;-2.30;100.00;98541.22;2079729;28;20314;-71
2021/01/28 00:44:39;;;;;;;142.27;59.10;;;;;;;-2.31;100.00;98547.47;2070970;28;20251;-71
2021/01/28 00:45:41;;;;;;;134.73;56.45;;;;;;;-2.34;100.00;98545.31;2087908;28;20239;-71
2021/01/28 00:46:42;;;;;;;149.50;58.25;;;;;;;-2.37;100.00;98537.13;2087925;28;20234;-71
2021/01/28 00:47:43;;;;;;;131.10;55.83;;;;;;;-2.36;100.00;98549.94;2079729;28;20307;-71
2021/01/28 00:48:45;;;;;;;139.75;59.55;;;;;;;-2.39;100.00;98541.78;2080575;28;20227;-71
2021/01/28 00:49:46;;;;;;;141.63;56.47;;;;;;;-2.40;100.00;98545.41;2079689;28;20556;-71
2021/01/28 00:50:47;;;;;;;137.63;56.85;;;;;;;-2.41;100.00;98539.38;2079772;28;20243;-71
2021/01/28 00:51:48;;;;;;;137.87;57.07;;;;;;;-2.50;100.00;98527.69;2080370;28;20685;-71
2021/01/28 00:52:49;;;;;;;126.63;54.65;;;;;;;-2.50;100.00;98525.06;2080424;28;20365;-71
2021/01/28 00:53:51;;;;;;;134.60;56.27;;;;;;;-2.45;100.00;98538.22;2080444;28;20285;-71
2021/01/28 00:54:52;;;;;;;125.38;56.17;;;;;;;-2.44;100.00;98531.97;2079380;28;20250;-73
2021/01/28 00:55:58;;;;;;;137.65;58.33;;;;;;;-2.50;100.00;98525.06;2071702;28;20224;-71
2021/01/28 00:57:20;;;;;;;130.45;56.10;;;;;;;-2.45;100.00;98530.41;2079213;28;20310;-71
2021/01/28 00:58:24;;;;;;;138.23;56.00;;;;;;;-2.46;100.00;98523.59;2079318;28;20227;-71
2021/01/28 00:59:26;;;;;;;140.88;58.70;;;;;;;-2.39;100.00;98529.50;2087716;28;20611;-71
2021/01/28 01:00:30;;;;;;;130.13;54.35;;;;;;;-2.42;100.00;98524.75;2087690;28;20230;-71
2021/01/28 01:01:31;;;;;;;132.90;56.65;;;;;;;-2.37;100.00;98522.25;2079605;28;20246;-70
2021/01/28 01:02:33;;;;;;;143.30;59.53;;;;;;;-2.36;100.00;98517.81;2071431;28;20224;-71
2021/01/28 01:03:34;;;;;;;144.13;58.75;;;;;;;-2.38;100.00;98509.41;2071424;28;20279;-71
2021/01/28 01:04:35;;;;;;;138.77;59.43;;;;;;;-2.42;100.00;98514.31;2071491;28;20254;-71
2021/01/28 01:05:38;;;;;;;134.93;56.95;;;;;;;-2.46;100.00;98512.34;2079539;28;20224;-71
2021/01/28 01:06:39;;;;;;;132.75;59.10;;;;;;;-2.44;100.00;98515.53;2064938;28;20287;-70
2021/01/28 01:07:40;;;;;;;138.45;56.38;;;;;;;-2.47;100.00;98503.72;2063419;28;20314;-70
2021/01/28 01:08:41;;;;;;;132.13;56.80;;;;;;;-2.48;100.00;98509.97;2071378;28;20227;-72
2021/01/28 01:09:55;;;;;;;142.20;55.83;;;;;;;-2.45;100.00;98508.72;2078042;28;20222;-73
2021/01/28 01:10:59;;;;;;;134.27;57.47;;;;;;;-2.50;100.00;98506.78;2078296;28;20230;-72
2021/01/28 01:12:00;;;;;;;142.63;57.97;;;;;;;-2.42;100.00;98509.06;2079580;28;20247;-71
2021/01/28 01:13:02;;;;;;;142.83;58.00;;;;;;;-2.44;100.00;98505.06;2071243;28;20274;-72
2021/01/28 01:14:03;;;;;;;141.32;59.70;;;;;;;-2.47;100.00;98495.09;2071443;28;20220;-73
2021/01/28 01:15:09;;;;;;;134.82;57.63;;;;;;;-2.48;100.00;98503.94;2065419;28;20635;-73
2021/01/28 01:16:12;;;;;;;141.65;57.97;;;;;;;-2.51;100.00;98505.19;2079034;28;20573;-72
2021/01/28 01:17:17;;;;;;;130.25;56.88;;;;;;;-2.48;100.00;98504.75;2081191;28;20225;-72
2021/01/28 01:18:26;;;;;;;135.48;57.20;;;;;;;-2.50;100.00;98501.56;2080768;28;20234;-72
2021/01/28 01:19:27;;;;;;;142.32;58.30;;;;;;;-2.45;100.00;98503.47;2081350;28;20227;-71
2021/01/28 01:20:49;;;;;;;136.45;58.72;;;;;;;-2.48;100.00;98494.28;2081358;28;20226;-72
2021/01/28 01:21:54;;;;;;;141.85;61.25;;;;;;;-2.44;100.00;98505.06;2080844;28;20219;-74
2021/01/28 01:22:58;;;;;;;149.75;59.58;;;;;;;-2.53;100.00;98491.53;2081217;28;20361;-72
2021/01/28 01:24:02;;;;;;;151.05;61.90;;;;;;;-2.49;100.00;98497.94;2081142;28;20784;-72
2021/01/28 01:25:04;;;;;;;140.52;59.65;;;;;;;-2.49;100.00;98503.16;2081326;28;20242;-72
2021/01/28 01:26:05;;;;;;;137.80;57.40;;;;;;;-2.47;100.00;98495.09;2081270;28;20370;-71
2021/01/28 01:27:06;;;;;;;133.77;57.53;;;;;;;-2.38;100.00;98499.75;2081187;28;20226;-72
2021/01/28 01:28:08;;;;;;;140.10;59.30;;;;;;;-2.44;100.00;98495.41;2080609;28;20223;-73
2021/01/28 01:29:26;;;;;;;142.43;59.30;;;;;;;-2.46;100.00;98494.84;2074855;28;20373;-72
2021/01/28 01:30:48;;;;;;;133.80;58.65;;;;;;;-2.54;100.00;98484.75;2080941;28;20574;-72
2021/01/28 01:31:49;;;;;;;137.10;58.22;;;;;;;-2.50;100.00;98501.56;2081217;28;20602;-72
2021/01/28 01:32:52;;;;;;;137.57;57.92;;;;;;;-2.52;100.00;98500.97;2081149;28;20215;-72
2021/01/28 01:34:07;;;;;;;138.20;59.38;;;;;;;-2.56;100.00;98502.44;2072596;28;20718;-72
2021/01/28 01:35:09;;;;;;;158.40;62.72;;;;;;;-2.62;100.00;98488.47;2072578;28;20243;-72
2021/01/28 01:36:11;;;;;;;149.60;59.88;;;;;;;-2.57;100.00;98496.44;2081155;28;20286;-73
2021/01/28 01:37:20;;;;;;;147.95;63.78;;;;;;;-2.59;100.00;98498.50;2081130;28;20237;-71
2021/01/28 01:38:26;;;;;;;147.82;61.08;;;;;;;-2.62;100.00;98493.69;2089428;28;20273;-72
2021/01/28 01:39:27;;;;;;;143.20;60.40;;;;;;;-2.64;100.00;98498.34;2089108;28;20588;-71
2021/01/28 01:40:31;;;;;;;141.33;59.13;;;;;;;-2.65;100.00;98501.19;2081085;28;20298;-72
2021/01/28 01:41:32;;;;;;;147.25;60.30;;;;;;;-2.66;100.00;98491.78;2073404;28;20227;-70
2021/01/28 01:42:34;;;;;;;142.40;63.37;;;;;;;-2.65;100.00;98493.34;2081043;28;20223;-72
2021/01/28 01:43:35;;;;;;;137.55;61.70;;;;;;;-2.67;100.00;98490.19;2081859;28;20457;-73
2021/01/28 01:44:39;;;;;;;149.32;62.88;;;;;;;-2.64;100.00;98494.94;2080734;28;20733;-72
2021/01/28 01:46:06;;;;;;;135.63;60.42;;;;;;;-2.61;100.00;98491.88;2072574;28;20266;-70
2021/01/28 01:47:30;;;;;;;143.70;62.63;;;;;;;-2.60;100.00;98496.91;2079257;28;20253;-70
2021/01/28 01:48:35;;;;;;;145.88;62.08;;;;;;;-2.64;100.00;98495.75;2097158;28;20222;-70
2021/01/28 01:49:36;;;;;;;152.63;62.90;;;;;;;-2.66;100.00;98491.78;2088485;28;20234;-72
2021/01/28 01:50:44;;;;;;;143.63;60.40;;;;;;;-2.67;100.00;98492.78;2080345;28;20231;-72
2021/01/28 01:51:45;;;;;;;147.20;61.20;;;;;;;-2.74;100.00;98492.88;2073877;28;20220;-72
2021/01/28 01:53:17;;;;;;;140.15;62.67;;;;;;;-2.70;100.00;98490.63;2080372;28;20235;-73
2021/01/28 01:54:23;;;;;;;142.40;60.03;;;;;;;-2.72;100.00;98495.28;2081055;28;20330;-73
2021/01/28 01:55:31;;;;;;;151.15;62.20;;;;;;;-2.76;100.00;98488.91;2080590;28;20226;-72
2021/01/28 01:56:44;;;;;;;144.50;61.55;;;;;;;-2.80;100.00;98485.16;2080456;28;20242;-70
2021/01/28 01:57:45;;;;;;;147.88;63.25;;;;;;;-2.76;100.00;98491.53;2073112;28;20228;-72
2021/01/28 01:58:56;;;;;;;137.90;59.70;;;;;;;-2.78;100.00;98489.16;2073532;28;20618;-72
2021/01/28 02:00:18;;;;;;;128.25;55.28;;;;;;;-2.78;100.00;98491.75;2077861;28;20215;-72
2021/01/28 02:01:22;;;;;;;149.40;60.13;;;;;;;-2.88;100.00;98465.38;2081695;28;20231;-72
2021/01/28 02:02:46;;;;;;;142.43;59.10;;;;;;;-2.87;100.00;98472.19;2080768;28;20246;-72
2021/01/28 02:04:06;;;;;;;133.10;58.08;;;;;;;-2.84;100.00;98474.38;2079322;28;20211;-70
2021/01/28 02:05:30;;;;;;;141.40;57.60;;;;;;;-2.86;100.00;98466.75;2081154;28;20222;-72
2021/01/28 02:06:52;;;;;;;138.00;58.78;;;;;;;-2.91;100.00;98464.03;2079434;28;20681;-72
2021/01/28 02:08:12;;;;;;;147.27;60.72;;;;;;;-2.90;100.00;98470.81;2081004;28;20230;-71
2021/01/28 02:09:33;;;;;;;136.23;57.83;;;;;;;-2.95;100.00;98456.88;2072051;28;20219;-70
2021/01/28 02:10:50;;;;;;;138.02;59.00;;;;;;;-2.95;100.00;98460.28;2097095;28;20663;-71
2021/01/28 02:12:10;;;;;;;146.55;60.05;;;;;;;-2.98;100.00;98465.91;2091885;28;20222;-70
2021/01/28 02:13:26;;;;;;;146.20;59.83;;;;;;;-2.99;100.00;98466.94;2080565;28;20286;-70
2021/01/28 02:14:40;;;;;;;138.70;58.53;;;;;;;-3.00;100.00;98460.13;2080397;28;20231;-70
2021/01/28 02:15:49;;;;;;;140.52;59.40;;;;;;;-3.02;100.00;98462.19;2073885;28;20232;-70
2021/01/28 02:16:53;;;;;;;139.07;60.75;;;;;;;-3.10;100.00;98459.88;2072792;28;20274;-72
2021/01/28 02:18:17;;;;;;;133.55;60.35;;;;;;;-3.19;100.00;98451.56;2080480;28;20242;-72
2021/01/28 02:19:40;;;;;;;141.23;60.78;;;;;;;-3.11;100.00;98458.31;2080298;28;20686;-72
2021/01/28 02:21:08;;;;;;;149.13;61.58;;;;;;;-3.17;100.00;98459.97;2080358;28;20227;-71
2021/01/28 02:22:08;;;;;;;132.43;57.97;;;;;;;-3.21;100.00;98458.03;2071681;28;20600;-72
2021/01/28 02:23:18;;;;;;;139.53;58.97;;;;;;;-3.24;100.00;98456.66;2072666;28;20331;-72
2021/01/28 02:24:29;;;;;;;146.20;59.25;;;;;;;-3.27;100.00;98464.94;2080858;28;20227;-72
2021/01/28 02:25:33;;;;;;;139.75;59.20;;;;;;;-3.36;100.00;98444.59;2080283;28;20231;-72
2021/01/28 02:26:34;;;;;;;150.13;63.13;;;;;;;-3.43;100.00;98455.91;2072857;28;20230;-72
2021/01/28 02:27:58;;;;;;;144.70;60.45;;;;;;;-3.40;100.00;98454.66;2079630;28;20272;-71
2021/01/28 02:29:12;;;;;;;135.57;59.00;;;;;;;-3.37;100.00;98453.44;2081067;28;20230;-73
2021/01/28 02:30:15;;;;;;;135.48;60.30;;;;;;;-3.45;100.00;98447.50;2080659;28;20619;-72
2021/01/28 02:31:16;;;;;;;143.18;59.08;;;;;;;-3.46;100.00;98445.13;2080934;28;20701;-71
2021/01/28 02:32:18;;;;;;;157.02;62.03;;;;;;;-3.52;100.00;98446.00;2080650;28;20779;-72
2021/01/28 02:33:38;;;;;;;145.15;60.72;;;;;;;-3.58;100.00;98447.66;2080285;28;20224;-71
2021/01/28 02:34:59;;;;;;;136.27;57.70;;;;;;;-3.68;100.00;98431.75;2079951;28;20294;-72
2021/01/28 02:35:59;;;;;;;148.98;61.67;;;;;;;-3.74;100.00;98432.63;2072401;28;20227;-71
2021/01/28 02:37:11;;;;;;;141.60;60.17;;;;;;;-3.66;100.00;98440.13;2080655;28;20570;-71
2021/01/28 02:38:29;;;;;;;143.55;60.65;;;;;;;-3.65;100.00;98449.56;2080523;28;20577;-71
2021/01/28 02:39:39;;;;;;;140.25;60.53;;;;;;;-3.67;100.00;98450.78;2080223;28;20336;-72
2021/01/28 02:40:54;;;;;;;154.75;61.00;;;;;;;-3.73;100.00;98449.88;2078061;28;20230;-72
2021/01/28 02:41:59;;;;;;;155.77;60.78;;;;;;;-3.78;100.00;98452.31;2080729;28;20223;-71
2021/01/28 02:43:02;;;;;;;152.88;62.25;;;;;;;-3.83;100.00;98450.38;2080536;28;20223;-71
2021/01/28 02:44:31;;;;;;;149.63;63.22;;;;;;;-3.85;100.00;98452.41;2080236;28;20266;-72
2021/01/28 02:46:02;;;;;;;149.13;62.92;;;;;;;-3.93;100.00;98444.88;2076174;28;20223;-72
2021/01/28 02:47:19;;;;;;;148.98;62.25;;;;;;;-3.92;100.00;98449.06;2075361;28;20219;-73
2021/01/28 02:48:48;;;;;;;155.15;60.33;;;;;;;-3.96;100.00;98444.53;2091647;28;20569;-71
2021/01/28 02:50:00;;;;;;;150.30;63.00;;;;;;;-3.97;100.00;98445.53;2086626;28;20408;-72
2021/01/28 02:51:02;;;;;;;145.63;62.22;;;;;;;-3.99;100.00;98446.56;2072222;28;20271;-72
2021/01/28 02:52:03;;;;;;;147.48;61.63;;;;;;;-4.10;100.00;98428.22;2072563;28;20262;-72
2021/01/28 02:53:09;;;;;;;146.20;61.50;;;;;;;-4.05;100.00;98441.41;2080311;28;20318;-72
2021/01/28 02:54:15;;;;;;;142.50;62.78;;;;;;;-4.07;100.00;98430.41;2080187;28;20641;-73
2021/01/28 02:55:17;;;;;;;146.82;60.97;;;;;;;-4.10;100.00;98434.22;2080562;28;20243;-72
2021/01/28 02:56:20;;;;;;;136.38;59.65;;;;;;;-4.12;100.00;98432.84;2080617;28;20708;-71
2021/01/28 02:57:21;;;;;;;138.52;59.35;;;;;;;-4.15;100.00;98428.09;2080466;28;20701;-71
2021/01/28 02:58:29;;;;;;;134.35;57.75;;;;;;;-4.18;100.00;98436.31;2062667;28;20773;-72
2021/01/28 02:59:43;;;;;;;127.55;54.85;;;;;;;-4.21;100.00;98431.56;2072007;28;20714;-71
2021/01/28 03:00:44;;;;;;;119.90;54.40;;;;;;;-4.23;100.00;98436.19;2064289;28;20224;-72
2021/01/28 03:01:46;;;;;;;129.35;55.55;;;;;;;-4.26;100.00;98421.78;2072298;28;20307;-72
2021/01/28 03:02:49;;;;;;;121.88;54.72;;;;;;;-4.28;100.00;98426.41;2072176;28;20274;-72
2021/01/28 03:03:51;;;;;;;126.38;55.10;;;;;;;-4.25;100.00;98425.19;2072040;28;20227;-72
2021/01/28 03:05:46;;;;;;;137.07;57.45;;;;;;;-4.22;100.00;98424.75;2090590;27;20546;-71
2021/01/28 03:06:48;;;;;;;128.23;56.40;;;;;;;-4.31;100.00;98416.44;2086720;28;20219;-71
2021/01/28 03:07:51;;;;;;;131.07;56.88;;;;;;;-4.29;100.00;98424.81;2078716;28;20219;-71
2021/01/28 03:08:51;;;;;;;138.23;58.30;;;;;;;-4.30;100.00;98418.81;2086837;28;20230;-74
2021/01/28 03:10:17;;;;;;;137.98;57.85;;;;;;;-4.53;100.00;98382.19;2081884;28;20230;-71
2021/01/28 03:11:34;;;;;;;131.38;54.83;;;;;;;-4.39;100.00;98412.28;2086528;28;20616;-72
2021/01/28 03:12:35;;;;;;;126.65;55.78;;;;;;;-4.42;100.00;98409.34;2078294;28;20625;-71
2021/01/28 03:13:41;;;;;;;127.63;55.95;;;;;;;-4.43;100.00;98420.75;2078699;28;20223;-71
2021/01/28 03:14:54;;;;;;;138.05;59.17;;;;;;;-4.49;100.00;98416.41;2079811;28;20281;-71
2021/01/28 03:15:56;;;;;;;144.13;59.10;;;;;;;-4.55;100.00;98415.44;2086518;28;20240;-71
2021/01/28 03:16:57;;;;;;;138.98;60.38;;;;;;;-4.59;100.00;98419.50;2078418;28;20231;-71
2021/01/28 03:18:08;;;;;;;131.57;56.50;;;;;;;-4.70;100.00;98407.97;2086339;28;20797;-72
2021/01/28 03:19:10;;;;;;;131.80;56.75;;;;;;;-4.73;100.00;98413.59;2086606;28;20226;-71
2021/01/28 03:20:14;;;;;;;147.55;62.45;;;;;;;-4.72;100.00;98409.19;2086773;28;20232;-72
2021/01/28 03:21:17;;;;;;;132.63;57.00;;;;;;;-4.76;100.00;98414.03;2086373;28;20223;-72
2021/01/28 03:22:32;;;;;;;137.82;58.03;;;;;;;-4.84;100.00;98411.72;2080181;28;20218;-72
2021/01/28 03:23:52;;;;;;;117.75;51.60;;;;;;;-4.88;100.00;98419.13;2092452;28;20234;-74
2021/01/28 03:25:12;;;;;;;121.53;52.22;;;;;;;-4.90;100.00;98412.53;2094521;28;20221;-71
2021/01/28 03:26:13;;;;;;;115.90;51.03;;;;;;;-4.89;100.00;98408.94;2103874;28;20290;-71
2021/01/28 03:27:14;;;;;;;109.05;50.60;;;;;;;-4.93;100.00;98410.38;2103138;28;20228;-71
2021/01/28 03:28:15;;;;;;;107.87;49.93;;;;;;;-5.00;100.00;98394.03;2094846;28;20309;-71
2021/01/28 03:29:20;;;;;;;117.20;50.45;;;;;;;-4.97;100.00;98396.19;2087256;28;20223;-71
2021/01/28 03:30:27;;;;;;;110.32;51.03;;;;;;;-5.00;100.00;98407.81;2102731;28;20600;-72
2021/01/28 03:31:28;;;;;;;100.82;49.00;;;;;;;-5.06;100.00;98395.66;2102013;28;20721;-71
2021/01/28 03:32:29;;;;;;;108.53;48.87;;;;;;;-5.02;100.00;98402.03;2086596;28;20576;-71
2021/01/28 03:33:31;;;;;;;99.70;47.38;;;;;;;-5.03;100.00;98403.06;2094991;28;20449;-71
2021/01/28 03:34:35;;;;;;;103.80;47.40;;;;;;;-5.12;100.00;98392.13;2094786;28;20222;-71
2021/01/28 03:35:36;;;;;;;94.63;46.42;;;;;;;-5.08;100.00;98400.28;2094902;28;20225;-72
2021/01/28 03:36:42;;;;;;;98.88;47.28;;;;;;;-5.06;100.00;98392.25;2094480;28;20575;-72
2021/01/28 03:37:51;;;;;;;102.57;46.25;;;;;;;-5.07;100.00;98386.25;2094693;28;20739;-72
2021/01/28 03:39:39;;;;;;;110.70;47.28;;;;;;;-5.04;100.00;98396.22;2093437;27;20535;-70
2021/01/28 03:40:40;;;;;;;108.88;47.22;;;;;;;-5.09;100.00;98383.09;2087573;28;20309;-72
2021/01/28 03:41:42;;;;;;;91.95;45.63;;;;;;;-5.05;100.00;98391.25;2089547;28;20721;-74
2021/01/28 03:42:44;;;;;;;92.13;43.97;;;;;;;-5.05;100.00;98393.84;2095009;28;20222;-71
2021/01/28 03:43:45;;;;;;;88.07;45.93;;;;;;;-5.05;100.00;98392.03;2095103;28;20218;-70
2021/01/28 03:44:52;;;;;;;88.03;41.65;;;;;;;-5.07;100.00;98385.47;2096600;28;20264;-71
2021/01/28 03:45:54;;;;;;;86.90;44.00;;;;;;;-5.04;100.00;98401.44;2086608;28;20269;-70
2021/01/28 03:46:55;;;;;;;89.45;44.38;;;;;;;-5.06;100.00;98389.66;2095044;28;20253;-71
2021/01/28 03:48:06;;;;;;;98.38;44.70;;;;;;;-4.99;100.00;98396.41;2095002;28;20309;-71
2021/01/28 03:49:39;;;;;;;86.82;43.47;;;;;;;-4.91;100.00;98390.16;2094375;28;20279;-73
2021/01/28 03:50:49;;;;;;;88.78;42.58;;;;;;;-4.91;100.00;98390.94;2103245;28;20222;-71
2021/01/28 03:52:02;;;;;;;92.25;44.60;;;;;;;-4.85;100.00;98391.91;2093968;28;20225;-71
2021/01/28 03:53:12;;;;;;;102.55;47.42;;;;;;;-4.83;100.00;98387.28;2102981;28;20233;-71
2021/01/28 03:54:31;;;;;;;141.23;60.05;;;;;;;-4.81;100.00;98393.06;2102648;28;20228;-71
2021/01/28 03:55:46;;;;;;;118.43;52.90;;;;;;;-4.91;100.00;98382.34;2096415;28;20566;-71
2021/01/28 03:56:47;;;;;;;115.22;50.95;;;;;;;-4.88;100.00;98384.50;2103549;28;20625;-70
2021/01/28 03:57:51;;;;;;;107.53;50.72;;;;;;;-4.82;100.00;98383.66;2103243;28;20278;-70
2021/01/28 03:58:52;;;;;;;124.82;56.58;;;;;;;-4.87;100.00;98376.50;2088508;28;20309;-72
2021/01/28 04:00:28;;;;;;;109.38;52.30;;;;;;;-4.90;100.00;98378.72;2089296;28;20226;-71
2021/01/28 04:01:47;;;;;;;133.55;55.47;;;;;;;-4.83;100.00;98379.47;2102995;28;20656;-71
2021/01/28 04:03:08;;;;;;;146.98;60.42;;;;;;;-4.80;100.00;98384.25;2102830;28;20225;-71
2021/01/28 04:04:45;;;;;;;137.20;59.53;;;;;;;-4.82;100.00;98375.06;2086462;28;20222;-71
2021/01/28 04:06:04;;;;;;;147.35;60.40;;;;;;;-4.84;100.00;98377.88;2103780;28;20217;-70
2021/01/28 04:07:35;;;;;;;146.85;60.60;;;;;;;-4.92;100.00;98371.16;2098459;28;20228;-70
2021/01/28 04:08:36;;;;;;;151.23;60.30;;;;;;;-4.95;100.00;98374.19;2103150;28;20309;-70
2021/01/28 04:10:10;;;;;;;153.60;62.15;;;;;;;-4.97;100.00;98377.97;2098125;28;20346;-70
2021/01/28 04:11:12;;;;;;;150.63;62.38;;;;;;;-4.92;100.00;98375.56;2094705;28;20221;-72
2021/01/28 04:12:13;;;;;;;148.63;65.15;;;;;;;-4.93;100.00;98386.97;2094915;28;20221;-71
2021/01/28 04:13:35;;;;;;;154.77;66.75;;;;;;;-4.98;100.00;98379.78;2102815;28;20225;-70
2021/01/28 04:14:35;;;;;;;154.60;63.80;;;;;;;-5.05;100.00;98373.03;2090744;28;20226;-70
2021/01/28 04:15:37;;;;;;;149.93;63.75;;;;;;;-4.97;100.00;98383.19;2106947;28;20304;-72
2021/01/28 04:16:41;;;;;;;147.80;62.47;;;;;;;-5.07;100.00;98380.28;2110942;28;20224;-70
2021/01/28 04:17:42;;;;;;;146.25;61.58;;;;;;;-5.14;100.00;98373.31;2089911;28;20246;-71
2021/01/28 04:19:06;;;;;;;136.85;60.83;;;;;;;-5.26;100.00;98377.59;2094481;28;20299;-71
2021/01/28 04:20:19;;;;;;;144.65;59.28;;;;;;;-5.30;100.00;98379.03;2094531;28;20222;-70
2021/01/28 04:21:23;;;;;;;154.15;61.90;;;;;;;-5.34;100.00;98375.25;2086614;28;20234;-71
2021/01/28 04:22:28;;;;;;;138.85;58.50;;;;;;;-5.38;100.00;98374.09;2087145;28;20227;-70
2021/01/28 04:23:33;;;;;;;150.63;62.90;;;;;;;-5.45;100.00;98366.34;2094673;28;20572;-72
2021/01/28 04:24:51;;;;;;;136.73;58.70;;;;;;;-5.51;100.00;98367.16;2088686;28;20280;-72
2021/01/28 04:25:53;;;;;;;142.00;59.70;;;;;;;-5.53;100.00;98364.00;2088130;28;20238;-72
2021/01/28 04:26:54;;;;;;;145.48;62.30;;;;;;;-5.62;100.00;98356.66;2086405;28;20255;-72
2021/01/28 04:28:11;;;;;;;141.00;59.10;;;;;;;-5.65;100.00;98350.06;2096415;28;20225;-72
2021/01/28 04:29:20;;;;;;;120.03;54.17;;;;;;;-5.72;100.00;98342.31;2103066;28;20597;-71
2021/01/28 04:30:34;;;;;;;131.63;55.92;;;;;;;-5.69;100.00;98349.69;2095531;28;20225;-72
2021/01/28 04:31:36;;;;;;;142.48;58.30;;;;;;;-5.85;100.00;98332.00;2088905;28;20219;-72
2021/01/28 04:32:44;;;;;;;116.40;51.58;;;;;;;-5.75;100.00;98347.91;2094051;28;20319;-71
2021/01/28 04:34:17;;;;;;;122.25;54.22;;;;;;;-5.83;100.00;98340.38;2089375;28;20229;-71
2021/01/28 04:35:21;;;;;;;104.72;47.67;;;;;;;-5.81;100.00;98335.78;2098278;28;20309;-71
2021/01/28 04:36:25;;;;;;;109.70;50.60;;;;;;;-5.78;100.00;98337.94;2092281;28;20226;-71
2021/01/28 04:37:49;;;;;;;97.00;46.22;;;;;;;-5.80;100.00;98333.97;2098068;28;20607;-71
2021/01/28 04:38:55;;;;;;;101.03;48.15;;;;;;;-5.76;100.00;98343.72;2102336;28;20259;-71
2021/01/28 04:39:56;;;;;;;104.90;47.65;;;;;;;-5.71;100.00;98345.72;2102809;28;20237;-72
2021/01/28 04:41:10;;;;;;;101.50;46.53;;;;;;;-5.76;100.00;98330.75;2087650;28;20261;-72
2021/01/28 04:42:16;;;;;;;101.78;46.90;;;;;;;-5.73;100.00;98335.53;2093648;28;20261;-71
2021/01/28 04:43:23;;;;;;;110.10;50.60;;;;;;;-5.74;100.00;98323.53;2094848;28;20226;-72
2021/01/28 04:44:35;;;;;;;96.85;46.42;;;;;;;-5.72;100.00;98334.53;2088228;28;20320;-71
2021/01/28 04:45:40;;;;;;;148.00;61.45;;;;;;;-5.83;100.00;98327.38;2086212;28;20400;-72
2021/01/28 04:46:43;;;;;;;97.38;47.15;;;;;;;-5.78;100.00;98337.16;2086398;28;20219;-72
2021/01/28 04:48:11;;;;;;;135.18;59.90;;;;;;;-5.79;100.00;98333.75;2098810;27;20227;-72
2021/01/28 04:49:31;;;;;;;153.95;62.05;;;;;;;-5.85;100.00;98339.78;2094891;28;20222;-72
2021/01/28 04:50:51;;;;;;;118.88;54.30;;;;;;;-5.89;100.00;98333.44;2090391;28;20227;-72
2021/01/28 04:52:03;;;;;;;148.90;61.20;;;;;;;-5.90;100.00;98334.44;2088805;28;20214;-72
2021/01/28 04:53:12;;;;;;;147.88;60.58;;;;;;;-5.97;100.00;98335.50;2081134;28;20216;-72
2021/01/28 04:54:46;;;;;;;110.20;50.83;;;;;;;-6.02;100.00;98325.72;2085294;28;20253;-71
2021/01/28 04:56:07;;;;;;;137.65;58.38;;;;;;;-6.03;100.00;98334.50;2088686;28;20221;-72
2021/01/28 04:57:12;;;;;;;147.93;59.38;;;;;;;-6.06;100.00;98332.34;2096756;28;20225;-72
2021/01/28 04:58:20;;;;;;;148.30;61.17;;;;;;;-6.10;100.00;98323.34;2082377;28;20359;-72
2021/01/28 04:59:42;;;;;;;141.32;61.30;;;;;;;-6.10;100.00;98334.53;2090529;28;20241;-72
2021/01/28 05:00:44;;;;;;;124.22;53.70;;;;;;;-6.11;100.00;98330.34;2089526;28;20222;-72
2021/01/28 05:02:06;;;;;;;135.45;56.75;;;;;;;-6.08;100.00;98336.91;2090762;28;20223;-71
2021/01/28 05:03:31;;;;;;;144.63;60.67;;;;;;;-6.01;100.00;98332.50;2095396;28;20222;-71
2021/01/28 05:04:52;;;;;;;141.18;59.58;;;;;;;-5.97;100.00;98333.69;2096827;28;20237;-72
2021/01/28 05:06:19;;;;;;;140.20;59.38;;;;;;;-5.96;100.00;98324.91;2079706;28;20227;-72
2021/01/28 05:07:41;;;;;;;158.80;63.33;;;;;;;-5.96;100.00;98321.50;2090828;28;20226;-72